Time;durP1;ratioP1;P1;durP2;ratioP2;P2;SDS_P1;SDS_P2;PMS_P1;PMS_P2;Temp;Humidity;BMP_temperature;BMP_pressure;BME280_temperature;BME280_humidity;BME280_pressure;Samples;Min_cycle;Max_cycle;Signal;HPM_P1;HPM_P2
2023/08/06 04:30:08;;;;;;;15.00;2.08;;;14.60;80.80;;;;;;5948098;23;20105;-75
2023/08/06 04:32:33;;;;;;;12.52;1.70;;;14.70;80.70;;;;;;4897576;29;20080;-78
2023/08/06 04:34:59;;;;;;;12.02;2.60;;;14.70;80.50;;;;;;4902405;29;20032;-78
2023/08/06 04:37:25;;;;;;;16.48;2.50;;;14.70;80.70;;;;;;4902474;29;20456;-78
2023/08/06 04:39:50;;;;;;;17.42;2.50;;;14.70;80.70;;;;;;4901169;29;20048;-78
2023/08/06 04:42:16;;;;;;;11.52;2.55;;;14.70;80.60;;;;;;4902463;29;20445;-78
2023/08/06 04:44:42;;;;;;;24.05;2.80;;;14.70;80.60;;;;;;4902493;29;20088;-78
2023/08/06 04:47:07;;;;;;;10.00;2.10;;;14.60;80.80;;;;;;4902473;29;20065;-78
2023/08/06 04:49:33;;;;;;;15.65;3.10;;;14.70;80.80;;;;;;4901658;29;20495;-79
2023/08/06 04:51:58;;;;;;;9.80;2.15;;;14.70;80.60;;;;;;4902114;29;20039;-78
2023/08/06 04:54:24;;;;;;;14.02;2.50;;;14.60;80.70;;;;;;4902310;29;20152;-78
2023/08/06 04:56:49;;;;;;;13.35;2.03;;;14.70;80.60;;;;;;4901826;29;20032;-78
2023/08/06 04:59:15;;;;;;;17.00;2.20;;;14.60;80.80;;;;;;4885301;29;20029;-78
2023/08/06 05:01:41;;;;;;;14.95;2.72;;;14.60;80.80;;;;;;4901887;29;20032;-79
2023/08/06 05:04:06;;;;;;;11.88;2.05;;;14.60;80.80;;;;;;4885956;29;20684;-78
2023/08/06 05:06:32;;;;;;;12.85;2.35;;;14.60;80.80;;;;;;4885501;29;20431;-78
2023/08/06 05:08:57;;;;;;;9.05;1.83;;;14.60;80.80;;;;;;4902538;29;20025;-78
2023/08/06 05:11:24;;;;;;;12.38;2.78;;;14.60;81.00;;;;;;4902613;29;20040;-78
2023/08/06 05:13:50;;;;;;;13.75;2.05;;;14.60;80.80;;;;;;4902572;29;20024;-78
2023/08/06 05:16:15;;;;;;;13.85;2.45;;;14.60;80.90;;;;;;4902344;29;20043;-78
2023/08/06 05:18:41;;;;;;;9.82;2.17;;;14.60;80.80;;;;;;4885472;29;20024;-78
2023/08/06 05:21:07;;;;;;;19.98;2.83;;;14.60;80.80;;;;;;4902485;29;20100;-78
2023/08/06 05:23:32;;;;;;;17.20;2.22;;;14.60;81.00;;;;;;4902425;29;20028;-78
2023/08/06 05:25:58;;;;;;;11.55;2.10;;;14.70;81.00;;;;;;4885516;29;20127;-78
2023/08/06 05:28:24;;;;;;;17.90;2.10;;;14.60;81.00;;;;;;4902385;29;20531;-78
2023/08/06 05:30:49;;;;;;;19.45;2.75;;;14.70;81.00;;;;;;4902180;29;20057;-78
2023/08/06 05:33:15;;;;;;;15.07;2.50;;;14.70;80.90;;;;;;4902371;29;20032;-78
2023/08/06 05:35:42;;;;;;;13.40;2.65;;;14.70;81.00;;;;;;4902547;29;20039;-78
2023/08/06 05:38:07;;;;;;;14.95;2.55;;;14.70;81.00;;;;;;4885253;29;20436;-78
2023/08/06 05:40:34;;;;;;;12.82;2.60;;;14.70;81.10;;;;;;4902357;29;20056;-78
2023/08/06 05:42:59;;;;;;;20.02;3.20;;;14.70;81.10;;;;;;4885747;29;20053;-78
2023/08/06 05:45:25;;;;;;;19.90;2.40;;;14.80;81.10;;;;;;4902434;29;20472;-78
2023/08/06 05:47:51;;;;;;;17.23;2.90;;;14.70;81.10;;;;;;4885254;29;20071;-78
2023/08/06 05:50:16;;;;;;;13.88;2.63;;;14.70;81.20;;;;;;4902392;29;20060;-78
2023/08/06 05:52:42;;;;;;;14.75;3.10;;;14.70;81.50;;;;;;4902470;29;20029;-79
2023/08/06 05:55:08;;;;;;;13.65;2.25;;;14.70;81.50;;;;;;4902390;29;20036;-78
2023/08/06 05:57:34;;;;;;;23.90;4.13;;;14.70;81.50;;;;;;4902288;29;20543;-78
2023/08/06 06:00:00;;;;;;;11.80;2.10;;;14.70;81.50;;;;;;4903615;29;20036;-78
2023/08/06 06:02:26;;;;;;;17.42;2.88;;;14.80;81.50;;;;;;4905853;29;20028;-78
2023/08/06 06:04:51;;;;;;;22.83;2.92;;;14.90;81.20;;;;;;4905962;29;20044;-78
2023/08/06 06:07:17;;;;;;;15.82;2.50;;;14.90;81.10;;;;;;4905491;29;20028;-78
2023/08/06 06:09:43;;;;;;;14.85;2.17;;;15.00;81.00;;;;;;4905696;29;20036;-78
2023/08/06 06:12:08;;;;;;;15.07;3.20;;;15.10;81.00;;;;;;4888839;29;20513;-78
2023/08/06 06:14:34;;;;;;;21.95;3.40;;;15.20;80.90;;;;;;4905450;29;20102;-78
2023/08/06 06:17:00;;;;;;;11.07;2.67;;;15.20;80.90;;;;;;4905285;29;20060;-78
2023/08/06 06:19:26;;;;;;;10.82;2.78;;;15.20;81.00;;;;;;4888591;29;20101;-78
2023/08/06 06:21:53;;;;;;;14.57;2.58;;;15.30;80.60;;;;;;4905133;29;20497;-78
2023/08/06 06:24:19;;;;;;;18.60;2.67;;;15.40;80.60;;;;;;4901038;29;20036;-78
2023/08/06 06:26:44;;;;;;;21.40;3.20;;;15.40;80.50;;;;;;4903999;29;20035;-79
2023/08/06 06:29:10;;;;;;;15.90;2.53;;;15.40;80.50;;;;;;4904200;29;20036;-78
2023/08/06 06:31:35;;;;;;;23.13;2.78;;;15.50;80.60;;;;;;4903874;29;20111;-78
2023/08/06 06:34:01;;;;;;;11.90;2.47;;;15.40;80.50;;;;;;4905240;29;20567;-78
2023/08/06 06:36:27;;;;;;;15.48;2.67;;;15.50;80.70;;;;;;4904874;29;20025;-78
2023/08/06 06:38:52;;;;;;;17.40;2.83;;;15.50;80.60;;;;;;4888390;29;20476;-78
2023/08/06 06:41:18;;;;;;;12.95;2.72;;;15.50;80.90;;;;;;4905222;29;20025;-78
2023/08/06 06:43:44;;;;;;;18.20;2.70;;;15.50;81.30;;;;;;4905220;29;20535;-78
2023/08/06 06:46:09;;;;;;;17.92;2.67;;;15.60;81.50;;;;;;4904955;29;20033;-78
2023/08/06 06:48:35;;;;;;;12.77;2.92;;;15.70;81.00;;;;;;4904925;29;20103;-78
2023/08/06 06:51:00;;;;;;;22.25;2.80;;;15.80;81.10;;;;;;4904849;29;20044;-78
2023/08/06 06:53:29;;;;;;;20.75;3.83;;;15.80;80.80;;;;;;4905062;29;20029;-78
2023/08/06 06:55:55;;;;;;;10.45;2.42;;;15.90;80.70;;;;;;4904798;29;20081;-78
2023/08/06 06:58:21;;;;;;;17.38;2.95;;;16.00;80.80;;;;;;4904709;29;20063;-78
2023/08/06 07:00:48;;;;;;;19.33;3.35;;;16.10;80.60;;;;;;4904324;29;20020;-78
2023/08/06 07:03:14;;;;;;;19.48;3.47;;;16.30;80.40;;;;;;4887418;29;20025;-79
2023/08/06 07:05:43;;;;;;;19.27;3.05;;;16.40;80.10;;;;;;4904499;29;20096;-78
2023/08/06 07:08:08;;;;;;;12.38;2.72;;;16.50;79.80;;;;;;4904606;29;20449;-78
2023/08/06 07:10:34;;;;;;;21.80;3.15;;;16.60;79.70;;;;;;4904343;29;20036;-79
2023/08/06 07:13:00;;;;;;;24.40;3.78;;;16.70;79.70;;;;;;4886930;29;20039;-78
2023/08/06 07:15:25;;;;;;;17.27;3.30;;;16.60;79.50;;;;;;4904352;29;20035;-79
2023/08/06 07:17:51;;;;;;;17.13;3.17;;;16.80;79.30;;;;;;4904660;29;20029;-79
2023/08/06 07:20:17;;;;;;;13.73;2.97;;;17.40;78.20;;;;;;4887656;29;20032;-79
2023/08/06 07:22:43;;;;;;;25.27;3.42;;;19.10;74.40;;;;;;4904448;29;20027;-77
2023/08/06 07:25:09;;;;;;;15.48;3.05;;;19.30;72.70;;;;;;4904283;29;20106;-79
2023/08/06 07:27:34;;;;;;;21.30;3.35;;;18.90;72.30;;;;;;4904407;29;20493;-79
2023/08/06 07:30:00;;;;;;;18.77;3.10;;;20.10;70.60;;;;;;4887421;29;20024;-78
2023/08/06 07:32:27;;;;;;;19.13;3.47;;;23.60;63.40;;;;;;4885854;29;20072;-78
2023/08/06 07:34:56;;;;;;;19.10;3.80;;;25.30;57.40;;;;;;4886323;29;20036;-78
2023/08/06 07:37:22;;;;;;;14.77;3.08;;;26.00;54.70;;;;;;4886705;29;20028;-79
2023/08/06 07:39:48;;;;;;;14.13;3.40;;;27.60;50.70;;;;;;4903237;29;20080;-78
2023/08/06 07:42:14;;;;;;;17.77;3.58;;;28.00;47.90;;;;;;4903161;29;20028;-78
2023/08/06 07:44:39;;;;;;;17.63;2.88;;;29.10;46.30;;;;;;4903192;29;20025;-79
2023/08/06 07:47:05;;;;;;;14.43;3.35;;;29.60;44.80;;;;;;4902965;29;20056;-78
2023/08/06 07:49:31;;;;;;;20.15;3.42;;;30.10;41.90;;;;;;4903139;29;20064;-79
2023/08/06 07:51:56;;;;;;;18.73;3.40;;;30.20;41.80;;;;;;4903055;29;20056;-79
2023/08/06 07:54:24;;;;;;;19.40;3.03;;;30.30;41.50;;;;;;4903240;29;20025;-78
2023/08/06 07:56:49;;;;;;;17.52;3.30;;;29.80;41.30;;;;;;4902890;29;20032;-78
2023/08/06 07:59:15;;;;;;;17.65;3.08;;;28.90;43.20;;;;;;4902925;29;20593;-78
2023/08/06 08:01:41;;;;;;;19.27;2.95;;;28.30;44.20;;;;;;4902502;29;20103;-78
2023/08/06 08:04:06;;;;;;;15.13;3.20;;;28.30;45.10;;;;;;4902722;29;20032;-78
2023/08/06 08:06:33;;;;;;;19.95;3.58;;;28.70;44.30;;;;;;4902805;29;20029;-78
2023/08/06 08:08:59;;;;;;;17.88;3.40;;;29.90;42.30;;;;;;4902552;29;20020;-79
2023/08/06 08:11:25;;;;;;;16.73;2.90;;;31.20;40.70;;;;;;4885810;29;20092;-79
2023/08/06 08:13:51;;;;;;;14.82;2.72;;;32.30;38.60;;;;;;4902511;29;20032;-78
2023/08/06 08:16:17;;;;;;;18.73;2.80;;;29.50;40.70;;;;;;4902482;29;20468;-78
2023/08/06 08:18:42;;;;;;;19.63;3.08;;;27.10;44.80;;;;;;4902154;29;20035;-78
2023/08/06 08:21:08;;;;;;;13.18;2.63;;;25.50;49.00;;;;;;4902098;29;20025;-78
2023/08/06 08:23:34;;;;;;;18.73;2.58;;;24.30;51.90;;;;;;4902251;29;20518;-78
2023/08/06 08:26:01;;;;;;;14.18;2.42;;;23.40;53.00;;;;;;4900173;29;20025;-78
2023/08/06 08:28:27;;;;;;;15.05;3.50;;;23.30;55.00;;;;;;4882946;29;20040;-78
2023/08/06 08:30:53;;;;;;;9.13;1.90;;;23.10;56.30;;;;;;4846888;29;1090868;-78
2023/08/06 08:33:18;;;;;;;12.40;2.22;;;23.20;55.90;;;;;;4898956;29;20047;-77
2023/08/06 08:35:46;;;;;;;16.30;2.17;;;22.80;56.50;;;;;;4886143;29;20036;-78
2023/08/06 08:38:11;;;;;;;8.38;2.00;;;22.80;56.80;;;;;;4885861;29;20133;-78
2023/08/06 08:40:42;;;;;;;13.45;3.17;;;22.40;58.10;;;;;;4902975;29;20115;-78
2023/08/06 08:43:08;;;;;;;9.88;2.53;;;22.80;58.00;;;;;;4903275;29;20025;-79
2023/08/06 08:45:39;;;;;;;13.00;3.47;;;25.20;53.50;;;;;;4903125;29;20084;-78
2023/08/06 08:48:05;;;;;;;15.23;2.75;;;27.10;49.30;;;;;;4885858;29;20043;-78
2023/08/06 08:50:30;;;;;;;14.70;3.08;;;28.10;44.70;;;;;;4902899;29;20029;-78
2023/08/06 08:52:56;;;;;;;10.40;3.83;;;29.10;44.20;;;;;;4902747;29;20040;-78
2023/08/06 08:55:23;;;;;;;15.63;2.55;;;29.60;41.20;;;;;;4902359;29;20070;-78
2023/08/06 08:57:49;;;;;;;11.80;2.90;;;29.20;42.90;;;;;;4885539;29;20029;-78
2023/08/06 09:00:14;;;;;;;18.08;2.75;;;28.80;43.60;;;;;;4902743;29;20044;-78
2023/08/06 09:02:41;;;;;;;12.38;2.85;;;27.80;44.70;;;;;;4902513;29;20084;-78
2023/08/06 09:05:08;;;;;;;17.63;2.40;;;26.70;47.50;;;;;;4902770;29;20028;-78
2023/08/06 09:07:40;;;;;;;13.52;2.70;;;25.70;48.20;;;;;;4885595;29;20028;-78
2023/08/06 09:10:10;;;;;;;10.25;1.88;;;25.50;50.60;;;;;;4902581;29;20097;-78
2023/08/06 09:12:35;;;;;;;8.48;1.85;;;26.20;48.90;;;;;;4902724;29;20040;-78
2023/08/06 09:15:03;;;;;;;11.23;1.95;;;25.50;48.40;;;;;;4902565;29;20087;-78
2023/08/06 09:17:29;;;;;;;7.90;1.52;;;24.80;50.70;;;;;;4885362;29;20029;-77
2023/08/06 09:19:54;;;;;;;12.23;2.20;;;24.60;51.20;;;;;;4902551;29;20031;-78
2023/08/06 09:22:20;;;;;;;11.95;2.33;;;24.40;51.70;;;;;;4885825;29;20127;-78
2023/08/06 09:24:46;;;;;;;13.30;2.65;;;25.40;49.30;;;;;;4902491;29;20499;-78
2023/08/06 09:27:16;;;;;;;9.18;2.25;;;26.70;47.00;;;;;;4902221;29;20033;-78
2023/08/06 09:29:45;;;;;;;11.38;2.20;;;28.00;45.00;;;;;;4902588;29;20028;-78
2023/08/06 09:32:14;;;;;;;12.25;2.55;;;29.30;42.20;;;;;;4902181;29;20538;-78
2023/08/06 09:34:41;;;;;;;8.90;2.40;;;30.40;39.00;;;;;;4903621;29;20102;-78
2023/08/06 09:37:10;;;;;;;7.93;2.42;;;30.60;37.90;;;;;;4906048;29;20035;-78
2023/08/06 09:39:37;;;;;;;7.50;2.63;;;29.90;39.60;;;;;;4906293;29;20103;-78
2023/08/06 09:42:04;;;;;;;7.38;1.75;;;30.50;39.40;;;;;;4906289;29;20058;-78
2023/08/06 09:44:32;;;;;;;12.63;1.73;;;29.20;38.70;;;;;;4906165;29;20025;-78
2023/08/06 09:46:59;;;;;;;7.25;1.95;;;28.30;39.90;;;;;;4905919;29;20025;-78
2023/08/06 09:49:39;;;;;;;9.38;1.60;;;27.20;43.30;;;;;;4906124;29;20102;-78
2023/08/06 09:52:05;;;;;;;9.82;2.40;;;26.30;46.40;;;;;;4888873;29;20075;-78
2023/08/06 09:54:32;;;;;;;13.18;2.13;;;25.70;47.60;;;;;;4906181;29;20029;-78
2023/08/06 09:56:58;;;;;;;12.50;2.28;;;25.20;48.30;;;;;;4905808;29;20032;-78
2023/08/06 09:59:24;;;;;;;11.82;2.40;;;24.90;49.50;;;;;;4906123;29;20059;-77
2023/08/06 10:01:51;;;;;;;10.10;1.90;;;25.70;49.20;;;;;;4905680;29;20028;-78
2023/08/06 10:04:17;;;;;;;9.52;2.05;;;25.50;49.00;;;;;;4905564;29;20029;-78
2023/08/06 10:06:47;;;;;;;11.73;2.67;;;26.30;48.10;;;;;;4905670;29;20032;-78
2023/08/06 10:09:13;;;;;;;6.18;1.75;;;27.60;46.30;;;;;;4905792;29;20028;-78
2023/08/06 10:11:39;;;;;;;7.28;1.90;;;28.60;44.10;;;;;;4905663;29;20392;-78
2023/08/06 10:14:08;;;;;;;8.18;1.95;;;29.30;42.40;;;;;;4888478;29;20029;-78
2023/08/06 10:16:34;;;;;;;10.50;3.10;;;29.70;40.40;;;;;;4902862;29;20025;-79
2023/08/06 10:19:02;;;;;;;7.47;1.95;;;30.10;38.60;;;;;;4879984;29;20093;-78
2023/08/06 10:21:30;;;;;;;8.13;1.92;;;30.20;38.70;;;;;;4902680;29;20500;-78
2023/08/06 10:23:57;;;;;;;10.60;1.70;;;29.60;39.90;;;;;;4888397;29;20031;-78
2023/08/06 10:26:29;;;;;;;11.00;1.73;;;28.80;40.70;;;;;;4905179;29;20559;-78
2023/08/06 10:28:55;;;;;;;6.50;1.80;;;27.90;42.30;;;;;;4905399;29;20025;-78
2023/08/06 10:31:54;;;;;;;10.05;2.50;;;27.00;43.20;;;;;;4904899;29;20052;-78
2023/08/06 10:34:20;;;;;;;11.43;2.38;;;26.30;44.80;;;;;;4886382;29;20068;-78
2023/08/06 10:36:45;;;;;;;11.13;2.17;;;25.80;45.90;;;;;;4886378;29;20036;-78
2023/08/06 10:39:14;;;;;;;7.13;1.70;;;25.90;46.60;;;;;;4886716;29;20036;-78
2023/08/06 10:41:42;;;;;;;6.75;1.50;;;26.20;46.30;;;;;;4886340;29;20017;-78
2023/08/06 10:44:09;;;;;;;9.20;1.92;;;26.10;47.10;;;;;;4886374;29;20017;-78
2023/08/06 10:46:36;;;;;;;7.70;1.45;;;26.00;45.10;;;;;;4885001;29;20445;-78
2023/08/06 10:49:02;;;;;;;8.13;1.30;;;25.80;46.00;;;;;;4886337;29;20392;-77
2023/08/06 10:51:28;;;;;;;10.05;1.73;;;25.60;48.30;;;;;;4869598;29;20136;-77
2023/08/06 10:53:54;;;;;;;4.05;1.25;;;25.50;47.90;;;;;;4904602;29;20060;-78
2023/08/06 10:56:25;;;;;;;6.10;1.27;;;25.20;47.10;;;;;;4904848;29;20027;-78
2023/08/06 10:58:54;;;;;;;4.90;1.13;;;25.20;47.80;;;;;;4904844;29;20036;-78
2023/08/06 11:01:21;;;;;;;4.13;1.20;;;25.20;46.70;;;;;;4904459;29;20032;-77
2023/08/06 11:03:49;;;;;;;6.60;1.17;;;25.10;47.60;;;;;;4904602;29;20029;-77
2023/08/06 11:06:22;;;;;;;6.82;1.40;;;24.60;47.50;;;;;;4904726;29;20036;-77
2023/08/06 11:08:53;;;;;;;8.52;1.77;;;24.50;49.80;;;;;;4887657;29;20028;-77
2023/08/06 11:11:19;;;;;;;4.65;1.02;;;24.10;49.40;;;;;;4887513;29;20033;-77
2023/08/06 11:13:49;;;;;;;5.88;1.23;;;24.00;48.70;;;;;;4904685;29;20061;-78
2023/08/06 11:16:17;;;;;;;6.10;1.10;;;23.80;47.80;;;;;;4887361;29;20033;-77
2023/08/06 11:18:43;;;;;;;3.17;1.40;;;23.70;48.70;;;;;;4904284;29;20433;-77
2023/08/06 11:21:09;;;;;;;7.97;1.42;;;23.50;48.30;;;;;;4887464;29;20061;-77
2023/08/06 11:23:35;;;;;;;5.22;1.08;;;23.80;49.80;;;;;;4887306;29;20415;-78
2023/08/06 11:26:01;;;;;;;4.80;1.02;;;24.20;49.30;;;;;;4904343;29;20035;-77
2023/08/06 11:28:27;;;;;;;2.13;1.00;;;24.30;48.40;;;;;;4904314;29;20492;-78
2023/08/06 11:30:55;;;;;;;3.85;1.15;;;24.40;48.20;;;;;;4886852;29;20487;-77
2023/08/06 11:33:27;;;;;;;1.92;0.82;;;24.30;47.60;;;;;;4886919;29;20100;-77
2023/08/06 11:35:56;;;;;;;4.88;1.00;;;24.20;47.80;;;;;;4904340;29;20092;-77
2023/08/06 11:38:21;;;;;;;4.13;1.20;;;24.00;47.90;;;;;;4887063;29;20041;-77
2023/08/06 11:40:51;;;;;;;6.05;1.13;;;23.90;47.50;;;;;;4903912;29;20048;-78
2023/08/06 11:43:22;;;;;;;3.58;1.20;;;24.10;48.10;;;;;;4904098;29;20028;-78
2023/08/06 11:45:49;;;;;;;6.95;1.58;;;24.20;48.90;;;;;;4904088;29;20116;-78
2023/08/06 11:48:14;;;;;;;4.88;1.30;;;24.20;48.40;;;;;;4903832;29;20033;-78
2023/08/06 11:50:40;;;;;;;5.38;1.65;;;24.30;48.40;;;;;;4903838;29;20032;-78
2023/08/06 11:53:06;;;;;;;9.40;2.15;;;24.40;49.00;;;;;;4903868;29;20052;-77
2023/08/06 11:55:32;;;;;;;3.97;1.13;;;24.50;48.50;;;;;;4886992;29;20131;-78
2023/08/06 11:58:02;;;;;;;7.47;1.58;;;24.50;47.30;;;;;;4903531;29;20029;-78
2023/08/06 12:00:29;;;;;;;5.07;1.10;;;24.30;47.70;;;;;;4903693;29;20439;-78
2023/08/06 12:02:56;;;;;;;4.18;1.48;;;24.40;47.10;;;;;;4903678;29;20029;-78
2023/08/06 12:05:24;;;;;;;5.82;1.83;;;24.90;48.40;;;;;;4903701;29;20092;-78
2023/08/06 12:07:55;;;;;;;5.07;1.52;;;25.10;48.00;;;;;;4886686;29;20122;-78
2023/08/06 12:10:22;;;;;;;3.50;1.40;;;25.10;47.00;;;;;;4903579;29;20036;-78
2023/08/06 12:12:48;;;;;;;5.93;1.40;;;24.80;46.60;;;;;;4903672;29;20032;-78
2023/08/06 12:15:14;;;;;;;5.07;1.25;;;24.40;46.40;;;;;;4886474;29;20105;-78
2023/08/06 12:17:40;;;;;;;5.43;1.38;;;24.10;47.80;;;;;;4903245;29;20036;-78
2023/08/06 12:20:06;;;;;;;4.07;0.95;;;23.80;48.80;;;;;;4886239;29;20029;-77
2023/08/06 12:22:37;;;;;;;6.30;1.20;;;23.80;48.30;;;;;;4903011;29;20111;-78
2023/08/06 12:25:07;;;;;;;6.78;1.10;;;23.70;48.80;;;;;;4902833;29;20036;-77
2023/08/06 12:27:34;;;;;;;6.45;1.13;;;23.60;49.90;;;;;;4903214;29;20079;-77
2023/08/06 12:29:59;;;;;;;8.43;1.40;;;23.70;49.70;;;;;;4903252;29;20116;-77
2023/08/06 12:32:25;;;;;;;4.63;1.20;;;23.80;49.80;;;;;;4896556;29;20084;-78
2023/08/06 12:34:50;;;;;;;4.82;1.20;;;23.70;49.10;;;;;;4902991;29;20032;-78
2023/08/06 12:37:16;;;;;;;4.57;1.35;;;23.70;48.20;;;;;;4885831;29;20032;-77
2023/08/06 12:39:42;;;;;;;5.22;1.30;;;23.60;48.50;;;;;;4903134;29;20032;-77
2023/08/06 12:42:07;;;;;;;3.20;1.13;;;23.80;48.90;;;;;;4902977;29;20441;-77
2023/08/06 12:44:33;;;;;;;4.40;1.30;;;24.30;48.70;;;;;;4885514;29;20067;-78
2023/08/06 12:46:59;;;;;;;7.10;1.33;;;24.40;49.60;;;;;;4902925;29;20376;-77
2023/08/06 12:49:26;;;;;;;6.15;1.35;;;24.40;48.70;;;;;;4902818;29;20036;-78
2023/08/06 12:51:52;;;;;;;3.88;1.20;;;24.50;47.50;;;;;;4885861;29;20407;-78
2023/08/06 12:54:22;;;;;;;4.85;1.30;;;24.40;47.40;;;;;;4886024;29;20036;-78
2023/08/06 12:56:48;;;;;;;3.95;1.17;;;24.30;48.00;;;;;;4885631;29;20052;-78
2023/08/06 12:59:15;;;;;;;6.47;1.48;;;24.10;48.20;;;;;;4902933;29;20480;-78
2023/08/06 13:01:41;;;;;;;4.43;1.10;;;24.00;49.90;;;;;;4902383;29;20092;-78
2023/08/06 13:04:06;;;;;;;5.40;1.30;;;24.10;49.70;;;;;;4902587;29;20025;-77
2023/08/06 13:06:39;;;;;;;6.78;1.27;;;24.10;49.10;;;;;;4870215;29;20100;-78
2023/08/06 13:09:12;;;;;;;5.47;1.63;;;24.20;49.40;;;;;;4902049;29;20390;-78
2023/08/06 13:11:39;;;;;;;3.90;1.30;;;24.40;48.70;;;;;;4902684;29;20104;-78
2023/08/06 13:14:06;;;;;;;5.43;1.13;;;24.60;48.30;;;;;;4885697;29;20096;-78
2023/08/06 13:16:32;;;;;;;7.15;1.30;;;24.60;48.00;;;;;;4885575;29;20032;-78
2023/08/06 13:18:58;;;;;;;7.88;1.30;;;24.30;47.10;;;;;;4902483;29;20052;-78
2023/08/06 13:21:23;;;;;;;6.43;1.20;;;23.90;46.90;;;;;;4902484;29;20499;-78
2023/08/06 13:23:49;;;;;;;6.30;1.20;;;23.70;47.80;;;;;;4902640;29;20060;-78
2023/08/06 13:26:15;;;;;;;5.65;1.20;;;23.80;48.20;;;;;;4902390;29;20031;-78
2023/08/06 13:28:41;;;;;;;8.00;1.50;;;23.80;49.10;;;;;;4885610;29;20025;-78
2023/08/06 13:31:07;;;;;;;5.57;1.45;;;23.70;48.60;;;;;;4902465;29;20056;-78
2023/08/06 13:33:33;;;;;;;7.95;1.50;;;23.60;48.50;;;;;;4885584;29;20032;-78
2023/08/06 13:35:59;;;;;;;5.93;1.40;;;23.30;48.90;;;;;;4883692;29;20081;-78
2023/08/06 13:38:24;;;;;;;3.90;1.30;;;23.30;49.10;;;;;;4883398;29;20101;-78
2023/08/06 13:40:50;;;;;;;7.93;1.40;;;23.10;48.60;;;;;;4882492;29;20021;-78
2023/08/06 13:43:18;;;;;;;3.92;1.10;;;23.00;50.00;;;;;;4882266;29;20040;-78
2023/08/06 13:45:44;;;;;;;5.38;1.42;;;23.30;50.50;;;;;;4883759;29;20037;-78
2023/08/06 13:48:10;;;;;;;3.97;1.13;;;23.50;49.80;;;;;;4882021;29;20389;-78
2023/08/06 13:50:37;;;;;;;3.65;1.30;;;23.80;50.10;;;;;;4883512;29;20036;-78
2023/08/06 13:53:03;;;;;;;5.47;1.60;;;24.00;49.70;;;;;;4883737;29;20163;-78
2023/08/06 13:55:29;;;;;;;4.07;1.20;;;23.90;48.10;;;;;;4883826;29;20523;-78
2023/08/06 13:57:55;;;;;;;9.68;1.40;;;23.60;48.20;;;;;;4883298;29;20033;-78
2023/08/06 14:00:20;;;;;;;6.45;1.52;;;23.40;48.10;;;;;;4890629;29;20033;-78
2023/08/06 14:02:46;;;;;;;6.70;1.38;;;23.30;49.30;;;;;;4902057;29;20041;-78
2023/08/06 14:05:12;;;;;;;5.22;1.40;;;23.20;50.30;;;;;;4902120;29;20021;-78
2023/08/06 14:07:37;;;;;;;6.35;1.63;;;23.00;49.90;;;;;;4902111;29;20071;-78
2023/08/06 14:10:03;;;;;;;5.57;1.50;;;23.00;50.80;;;;;;4902343;29;20028;-78
2023/08/06 14:12:29;;;;;;;6.82;1.40;;;23.30;51.70;;;;;;4901980;29;20024;-78
2023/08/06 14:14:54;;;;;;;9.02;1.73;;;23.20;50.10;;;;;;4902076;29;20028;-78
2023/08/06 14:17:20;;;;;;;7.25;1.42;;;23.30;51.00;;;;;;4885108;29;20029;-78
2023/08/06 14:19:45;;;;;;;6.05;1.48;;;23.40;50.20;;;;;;4902367;29;20481;-78
2023/08/06 14:22:11;;;;;;;7.03;1.35;;;23.50;50.50;;;;;;4905075;29;20035;-78
2023/08/06 14:24:37;;;;;;;5.60;1.40;;;23.70;48.90;;;;;;4905612;29;20035;-78
2023/08/06 14:27:05;;;;;;;3.63;1.27;;;23.50;48.70;;;;;;4905003;29;20041;-78
2023/08/06 14:29:31;;;;;;;5.82;1.40;;;23.50;49.00;;;;;;4903189;29;20084;-78
2023/08/06 14:31:57;;;;;;;5.30;1.30;;;23.80;49.00;;;;;;4905037;29;20048;-78
2023/08/06 14:34:22;;;;;;;3.53;1.20;;;23.90;49.00;;;;;;4888149;29;20043;-78
2023/08/06 14:36:48;;;;;;;5.20;1.35;;;23.90;48.50;;;;;;4905240;29;20028;-78
2023/08/06 14:39:14;;;;;;;6.47;1.27;;;23.90;49.30;;;;;;4888468;29;20080;-78
2023/08/06 14:41:39;;;;;;;4.55;1.65;;;24.00;49.20;;;;;;4905095;29;20107;-78
2023/08/06 14:44:07;;;;;;;5.97;1.20;;;24.10;47.90;;;;;;4888214;29;20559;-77
2023/08/06 14:46:32;;;;;;;6.25;1.25;;;23.80;47.70;;;;;;4888185;29;20024;-78
2023/08/06 14:48:58;;;;;;;8.05;1.33;;;23.70;49.70;;;;;;4905089;29;20432;-78
2023/08/06 14:51:24;;;;;;;6.25;1.45;;;23.80;48.90;;;;;;4904490;29;20053;-78
2023/08/06 14:53:49;;;;;;;4.82;1.17;;;23.70;47.20;;;;;;4887915;29;20032;-78
2023/08/06 14:56:15;;;;;;;6.70;1.60;;;23.80;46.90;;;;;;4904832;29;20030;-78
2023/08/06 14:58:41;;;;;;;6.45;1.50;;;23.90;47.60;;;;;;4905012;29;20032;-78
2023/08/06 15:01:07;;;;;;;3.50;1.10;;;24.10;48.50;;;;;;4904427;29;20029;-78
2023/08/06 15:03:33;;;;;;;6.75;1.23;;;24.00;47.20;;;;;;4903193;29;20105;-78
2023/08/06 15:05:59;;;;;;;5.57;1.40;;;24.00;47.40;;;;;;4904773;29;20021;-77
2023/08/06 15:08:25;;;;;;;4.03;1.20;;;23.90;48.70;;;;;;4887784;29;20029;-78
2023/08/06 15:10:53;;;;;;;5.50;1.42;;;23.90;48.50;;;;;;4904621;29;20051;-77
2023/08/06 15:13:20;;;;;;;5.05;1.55;;;23.80;47.90;;;;;;4904798;29;20488;-78
2023/08/06 15:15:49;;;;;;;6.32;1.40;;;23.80;48.80;;;;;;4904616;29;20466;-78
2023/08/06 15:18:15;;;;;;;5.50;1.27;;;23.80;48.40;;;;;;4904759;29;20029;-78
2023/08/06 15:20:40;;;;;;;3.78;1.30;;;23.80;49.00;;;;;;4904743;29;20089;-78
2023/08/06 15:23:06;;;;;;;6.57;1.23;;;23.60;48.70;;;;;;4904367;29;20025;-78
2023/08/06 15:25:31;;;;;;;6.47;1.50;;;23.50;48.50;;;;;;4904343;29;20052;-78
2023/08/06 15:27:57;;;;;;;4.53;1.20;;;23.50;49.40;;;;;;4887395;29;20039;-78
2023/08/06 15:30:23;;;;;;;4.53;1.35;;;23.60;49.30;;;;;;4887390;29;20029;-78
2023/08/06 15:32:48;;;;;;;9.63;1.60;;;23.30;48.30;;;;;;4903833;29;20376;-78
2023/08/06 15:35:14;;;;;;;4.95;1.58;;;23.30;48.80;;;;;;4904297;29;20161;-78
2023/08/06 15:37:40;;;;;;;6.53;1.50;;;23.30;47.70;;;;;;4903942;29;20088;-78
2023/08/06 15:40:09;;;;;;;7.63;1.65;;;23.30;47.90;;;;;;4904237;29;20084;-78
2023/08/06 15:42:35;;;;;;;4.38;1.23;;;23.40;48.70;;;;;;4904009;29;20032;-78
2023/08/06 15:45:03;;;;;;;6.72;1.80;;;23.30;48.30;;;;;;4904203;29;20031;-78
2023/08/06 15:47:28;;;;;;;8.57;1.58;;;23.30;47.90;;;;;;4903824;29;20472;-78
2023/08/06 15:49:54;;;;;;;6.43;1.58;;;23.30;49.10;;;;;;4903984;29;20368;-78
2023/08/06 15:52:20;;;;;;;5.28;1.40;;;23.20;48.70;;;;;;4904012;29;20392;-78
2023/08/06 15:54:45;;;;;;;5.00;1.20;;;23.10;48.80;;;;;;4903960;29;20036;-78
2023/08/06 15:57:11;;;;;;;7.63;1.58;;;23.10;48.70;;;;;;4903818;29;20120;-78
2023/08/06 15:59:37;;;;;;;5.18;1.90;;;23.10;49.00;;;;;;4903820;29;20111;-78
2023/08/06 16:02:03;;;;;;;6.45;1.65;;;23.00;49.10;;;;;;4884442;29;20515;-78
2023/08/06 16:04:30;;;;;;;6.95;1.73;;;23.10;48.30;;;;;;4895190;29;20021;-78
2023/08/06 16:06:56;;;;;;;5.72;1.40;;;23.00;48.10;;;;;;4886743;29;20029;-78
2023/08/06 16:09:25;;;;;;;8.63;1.60;;;23.10;49.30;;;;;;4903539;29;20017;-78
2023/08/06 16:11:52;;;;;;;7.10;1.70;;;23.10;48.40;;;;;;4903527;29;20031;-78
2023/08/06 16:14:18;;;;;;;5.93;1.77;;;23.20;48.60;;;;;;4903553;29;20021;-78
2023/08/06 16:16:45;;;;;;;10.43;1.58;;;23.20;49.40;;;;;;4903276;29;20476;-78
2023/08/06 16:19:11;;;;;;;8.40;2.03;;;23.30;49.10;;;;;;4903315;29;20031;-78
2023/08/06 16:21:37;;;;;;;7.95;1.65;;;23.30;48.80;;;;;;4903398;29;20025;-78
2023/08/06 16:24:04;;;;;;;5.88;1.63;;;23.30;48.10;;;;;;4903225;29;20029;-78
2023/08/06 16:26:33;;;;;;;7.32;1.73;;;23.30;48.00;;;;;;4903132;29;20028;-78
2023/08/06 16:28:58;;;;;;;7.45;1.58;;;23.20;48.90;;;;;;4903259;29;20541;-78
2023/08/06 16:31:24;;;;;;;8.40;1.70;;;23.10;49.10;;;;;;4902169;29;20110;-78
2023/08/06 16:33:50;;;;;;;6.78;1.65;;;23.10;48.50;;;;;;4899870;29;20067;-78
2023/08/06 16:36:16;;;;;;;4.85;1.60;;;23.00;48.70;;;;;;4884616;29;20041;-78
2023/08/06 16:38:42;;;;;;;6.32;1.48;;;22.80;48.70;;;;;;4884450;29;20572;-78
2023/08/06 16:41:07;;;;;;;6.65;1.90;;;22.70;49.70;;;;;;4884766;29;20037;-78
2023/08/06 16:43:33;;;;;;;6.07;1.60;;;22.80;50.20;;;;;;4883946;29;20542;-78
2023/08/06 16:45:59;;;;;;;6.32;1.63;;;22.80;50.40;;;;;;4884353;29;20116;-78
2023/08/06 16:48:30;;;;;;;7.97;1.90;;;22.80;50.00;;;;;;4884530;29;20033;-78
2023/08/06 16:51:00;;;;;;;7.45;1.35;;;22.80;49.00;;;;;;4884115;29;20029;-78
2023/08/06 16:53:26;;;;;;;6.95;1.95;;;22.80;49.50;;;;;;4895736;29;20043;-78
2023/08/06 16:55:57;;;;;;;5.85;1.40;;;22.60;48.80;;;;;;4886162;29;20032;-78
2023/08/06 16:58:24;;;;;;;6.55;1.50;;;22.60;49.10;;;;;;4903053;29;20032;-78
2023/08/06 17:00:49;;;;;;;8.02;1.80;;;22.50;49.00;;;;;;4902529;29;20029;-78
2023/08/06 17:03:16;;;;;;;4.25;1.30;;;22.50;48.80;;;;;;4901320;29;20111;-78
2023/08/06 17:05:43;;;;;;;7.82;1.88;;;22.40;48.40;;;;;;4902910;29;20108;-78
2023/08/06 17:08:08;;;;;;;6.15;1.38;;;22.30;49.20;;;;;;4902807;29;20024;-78